createdAt,value
2018-12-29T00:00:05.733Z,102221.66
2018-12-29T00:02:32.995Z,102217.94
2018-12-29T00:05:00.440Z,102221.48
2018-12-29T00:07:27.954Z,102231.34
2018-12-29T00:09:56.186Z,102226.77
2018-12-29T00:12:23.316Z,102233.14
2018-12-29T00:14:54.984Z,102231.23
2018-12-29T00:17:19.724Z,102237.27
2018-12-29T00:19:47.127Z,102230.66
2018-12-29T00:22:14.536Z,102233.03
2018-12-29T00:24:42.236Z,102226.48
2018-12-29T00:27:09.622Z,102213.43
2018-12-29T00:29:39.701Z,102224.35
2018-12-29T00:32:07.136Z,102230.88
2018-12-29T00:34:34.367Z,102220.45
2018-12-29T00:37:01.880Z,102221.55
2018-12-29T00:39:29.133Z,102210.45
2018-12-29T00:41:56.650Z,102204.84
2018-12-29T00:44:24.371Z,102194.43
2018-12-29T00:46:52.158Z,102199.04
2018-12-29T00:49:20.029Z,102200.88
2018-12-29T00:51:48.314Z,102205.28
2018-12-29T00:54:15.692Z,102205.09
2018-12-29T00:56:42.820Z,102204.91
2018-12-29T00:59:10.122Z,102210.88
2018-12-29T01:01:37.355Z,102215.05
2018-12-29T01:04:04.928Z,102214.66
2018-12-29T01:06:32.308Z,102208.95
2018-12-29T01:09:00.484Z,102205.63
2018-12-29T01:11:28.058Z,102212.72
2018-12-29T01:13:55.479Z,102216.48
2018-12-29T01:16:22.936Z,102211.45
2018-12-29T01:18:50.457Z,102207.72
2018-12-29T01:21:18.213Z,102212.83
2018-12-29T01:23:45.386Z,102212.97
2018-12-29T01:26:13.126Z,102209.91
2018-12-29T01:28:40.396Z,102206.83
2018-12-29T01:31:07.638Z,102209.67
2018-12-29T01:33:35.385Z,102201.94
2018-12-29T01:36:03.194Z,102202.86
2018-12-29T01:38:30.928Z,102203.59
2018-12-29T01:40:58.172Z,102198.22
2018-12-29T01:43:25.565Z,102192.97
2018-12-29T01:45:53.292Z,102194.53
2018-12-29T01:48:20.469Z,102207.58
2018-12-29T01:50:48.257Z,102215.41
2018-12-29T01:53:18.219Z,102215.55
2018-12-29T01:55:45.715Z,102227.67
2018-12-29T01:58:13.329Z,102240.04
2018-12-29T02:00:41.053Z,102232.34
2018-12-29T02:03:08.163Z,102241.11
2018-12-29T02:05:35.565Z,102229.95
2018-12-29T02:08:03.293Z,102241.57
2018-12-29T02:10:30.568Z,102238.38
2018-12-29T02:12:58.458Z,102247.20
2018-12-29T02:15:25.605Z,102234.90
2018-12-29T02:17:53.241Z,102239.90
2018-12-29T02:20:21.217Z,102243.11
2018-12-29T02:22:49.282Z,102235.53
2018-12-29T02:25:17.600Z,102236.46
2018-12-29T02:27:45.408Z,102223.77
2018-12-29T02:30:13.542Z,102223.27
2018-12-29T02:32:41.546Z,102223.22
2018-12-29T02:35:08.784Z,102217.20
2018-12-29T02:37:36.405Z,102217.77
2018-12-29T02:40:04.484Z,102212.34
2018-12-29T02:42:32.443Z,102209.86
2018-12-29T02:45:00.353Z,102206.84
2018-12-29T02:47:27.469Z,102218.80
2018-12-29T02:49:55.469Z,102217.38
2018-12-29T02:52:22.867Z,102201.84
2018-12-29T02:54:50.046Z,102205.50
2018-12-29T02:57:17.867Z,102193.80
2018-12-29T02:59:46.198Z,102203.25
2018-12-29T03:02:14.250Z,102201.52
2018-12-29T03:04:41.863Z,102194.51
2018-12-29T03:07:09.532Z,102188.11
2018-12-29T03:09:36.656Z,102179.20
2018-12-29T03:12:04.653Z,102189.97
2018-12-29T03:14:31.806Z,102182.03
2018-12-29T03:16:58.992Z,102177.31
2018-12-29T03:19:26.141Z,102180.83
2018-12-29T03:21:53.294Z,102176.16
2018-12-29T03:24:20.673Z,102157.66
2018-12-29T03:26:48.284Z,102161.02
2018-12-29T03:29:16.132Z,102162.09
2018-12-29T03:31:43.608Z,102151.11
2018-12-29T03:34:10.744Z,102149.80
2018-12-29T03:36:38.664Z,102141.79
2018-12-29T03:39:05.866Z,102146.36
2018-12-29T03:41:33.584Z,102143.66
2018-12-29T03:44:01.593Z,102160.25
2018-12-29T03:46:29.537Z,102164.72
2018-12-29T03:48:57.001Z,102160.90
2018-12-29T03:51:24.855Z,102155.83
2018-12-29T03:53:52.425Z,102152.06
2018-12-29T03:56:20.294Z,102152.88
2018-12-29T03:58:47.863Z,102160.36
2018-12-29T04:01:15.693Z,102164.58
2018-12-29T04:03:42.859Z,102162.88
2018-12-29T04:06:10.312Z,102174.28
2018-12-29T04:08:38.034Z,102175.11
2018-12-29T04:11:05.362Z,102175.32
2018-12-29T04:13:34.034Z,102169.58
2018-12-29T04:16:01.513Z,102176.95
2018-12-29T04:18:28.720Z,102174.25
2018-12-29T04:20:56.577Z,102165.82
2018-12-29T04:23:24.214Z,102170.28
2018-12-29T04:25:52.571Z,102174.28
2018-12-29T04:28:19.742Z,102171.63
2018-12-29T04:30:46.852Z,102167.27
2018-12-29T04:33:14.005Z,102170.95
2018-12-29T04:35:41.337Z,102171.73
2018-12-29T04:38:09.004Z,102173.62
2018-12-29T04:40:36.778Z,102180.98
2018-12-29T04:43:03.909Z,102178.85
2018-12-29T04:45:31.500Z,102186.41
2018-12-29T04:47:59.268Z,102186.02
2018-12-29T04:50:26.855Z,102194.34
2018-12-29T04:52:54.526Z,102190.84
2018-12-29T04:55:22.134Z,102195.66
2018-12-29T04:57:49.676Z,102200.41
2018-12-29T05:00:17.223Z,102208.77
2018-12-29T05:02:44.506Z,102203.66
2018-12-29T05:05:12.201Z,102206.48
2018-12-29T05:07:39.741Z,102211.62
2018-12-29T05:10:07.189Z,102215.39
2018-12-29T05:12:34.616Z,102219.62
2018-12-29T05:15:01.938Z,102208.34
2018-12-29T05:17:29.656Z,102205.39
2018-12-29T05:19:57.065Z,102213.05
2018-12-29T05:22:24.327Z,102212.48
2018-12-29T05:24:52.163Z,102209.02
2018-12-29T05:27:19.938Z,102207.80
2018-12-29T05:29:47.529Z,102198.92
2018-12-29T05:32:15.249Z,102207.25
2018-12-29T05:34:42.450Z,102205.41
2018-12-29T05:37:09.822Z,102194.25
2018-12-29T05:39:37.599Z,102199.25
2018-12-29T05:42:04.729Z,102203.81
2018-12-29T05:44:31.918Z,102201.72
2018-12-29T05:46:59.399Z,102199.17
2018-12-29T05:49:26.579Z,102201.23
2018-12-29T05:51:54.394Z,102199.70
2018-12-29T05:54:21.798Z,102194.96
2018-12-29T05:56:49.412Z,102193.19
2018-12-29T05:59:16.809Z,102192.33
2018-12-29T06:01:44.805Z,102194.14
2018-12-29T06:04:12.385Z,102192.94
2018-12-29T06:06:40.560Z,102192.58
2018-12-29T06:09:08.563Z,102193.50
2018-12-29T06:11:36.066Z,102196.45
2018-12-29T06:14:03.550Z,102201.02
2018-12-29T06:16:31.196Z,102193.32
2018-12-29T06:18:58.797Z,102197.00
2018-12-29T06:21:26.542Z,102201.41
2018-12-29T06:23:54.085Z,102200.19
2018-12-29T06:26:21.398Z,102207.06
2018-12-29T06:28:48.662Z,102208.27
2018-12-29T06:31:19.899Z,102207.00
2018-12-29T06:33:47.409Z,102204.31
2018-12-29T06:36:14.587Z,102204.97
2018-12-29T06:38:42.026Z,102202.11
2018-12-29T06:41:09.916Z,102200.16
2018-12-29T06:43:37.777Z,102195.02
2018-12-29T06:46:05.547Z,102203.63
2018-12-29T06:48:32.985Z,102200.77
2018-12-29T06:51:00.717Z,102201.12
2018-12-29T06:53:28.276Z,102202.58
2018-12-29T06:55:55.401Z,102209.09
2018-12-29T06:58:23.049Z,102206.27
2018-12-29T07:00:50.173Z,102211.16
2018-12-29T07:03:17.902Z,102210.25
2018-12-29T07:05:45.661Z,102212.81
2018-12-29T07:08:13.434Z,102220.25
2018-12-29T07:10:40.937Z,102223.55
2018-12-29T07:13:09.319Z,102232.23
2018-12-29T07:15:36.710Z,102225.00
2018-12-29T07:18:04.204Z,102235.06
2018-12-29T07:20:31.670Z,102245.42
2018-12-29T07:22:59.073Z,102243.66
2018-12-29T07:25:27.291Z,102258.27
2018-12-29T07:27:55.184Z,102262.80
2018-12-29T07:30:22.401Z,102261.31
2018-12-29T07:32:50.682Z,102265.33
2018-12-29T07:35:18.894Z,102267.77
2018-12-29T07:37:46.355Z,102269.86
2018-12-29T07:40:13.981Z,102271.95
2018-12-29T07:42:41.409Z,102279.15
2018-12-29T07:45:09.237Z,102279.15
2018-12-29T07:47:36.724Z,102273.95
2018-12-29T07:50:04.343Z,102273.73
2018-12-29T07:52:32.218Z,102274.31
2018-12-29T07:54:59.374Z,102269.36
2018-12-29T07:57:26.632Z,102268.48
2018-12-29T07:59:54.289Z,102271.64
2018-12-29T08:02:23.427Z,102270.76
2018-12-29T08:04:50.564Z,102268.95
2018-12-29T08:07:17.735Z,102265.79
2018-12-29T08:09:44.913Z,102274.30
2018-12-29T08:12:12.161Z,102275.55
2018-12-29T08:14:39.657Z,102262.81
2018-12-29T08:17:07.453Z,102270.11
2018-12-29T08:19:35.241Z,102276.67
2018-12-29T08:22:03.369Z,102273.20
2018-12-29T08:24:31.441Z,102272.03
2018-12-29T08:26:59.157Z,102276.40
2018-12-29T08:29:26.437Z,102267.49
2018-12-29T08:31:54.083Z,102268.20
2018-12-29T08:34:21.585Z,102263.31
2018-12-29T08:36:49.229Z,102262.95
2018-12-29T08:39:17.292Z,102264.77
2018-12-29T08:41:44.462Z,102265.13
2018-12-29T08:44:11.960Z,102269.59
2018-12-29T08:46:39.563Z,102274.73
2018-12-29T08:49:07.117Z,102281.34
2018-12-29T08:51:34.716Z,102282.19
2018-12-29T08:54:02.239Z,102273.47
2018-12-29T08:56:29.407Z,102279.64
2018-12-29T08:58:57.255Z,102280.20
2018-12-29T09:01:24.365Z,102274.25
2018-12-29T09:03:52.181Z,102277.94
2018-12-29T09:06:19.423Z,102262.05
2018-12-29T09:08:46.689Z,102269.28
2018-12-29T09:11:13.860Z,102270.34
2018-12-29T09:13:41.147Z,102266.84
2018-12-29T09:16:08.883Z,102265.45
2018-12-29T09:18:36.063Z,102261.44
2018-12-29T09:21:03.558Z,102271.13
2018-12-29T09:23:32.174Z,102264.09
2018-12-29T09:25:59.551Z,102272.61
2018-12-29T09:28:27.466Z,102260.48
2018-12-29T09:30:54.640Z,102265.73
2018-12-29T09:33:21.795Z,102261.65
2018-12-29T09:35:49.154Z,102269.00
2018-12-29T09:38:17.046Z,102268.25
2018-12-29T09:40:44.452Z,102267.75
2018-12-29T09:43:11.895Z,102259.02
2018-12-29T09:45:39.407Z,102253.74
2018-12-29T09:48:07.088Z,102265.05
2018-12-29T09:50:34.563Z,102280.70
2018-12-29T09:53:02.080Z,102275.57
2018-12-29T09:55:29.577Z,102268.59
2018-12-29T09:57:57.803Z,102266.44
2018-12-29T10:00:25.324Z,102275.88
2018-12-29T10:02:53.189Z,102277.30
2018-12-29T10:05:20.751Z,102266.10
2018-12-29T10:07:48.510Z,102272.30
2018-12-29T10:10:15.933Z,102278.59
2018-12-29T10:12:43.404Z,102268.02
2018-12-29T10:15:10.681Z,102260.84
2018-12-29T10:17:37.822Z,102269.36
2018-12-29T10:20:06.103Z,102275.90
2018-12-29T10:22:34.578Z,102273.60
2018-12-29T10:25:02.049Z,102263.90
2018-12-29T10:27:29.482Z,102262.21
2018-12-29T10:29:57.167Z,102258.56
2018-12-29T10:32:25.046Z,102261.07
2018-12-29T10:34:53.081Z,102266.21
2018-12-29T10:37:20.350Z,102264.01
2018-12-29T10:39:47.790Z,102264.57
2018-12-29T10:42:15.270Z,102260.46
2018-12-29T10:44:42.806Z,102258.61
2018-12-29T10:47:10.552Z,102256.06
2018-12-29T10:49:38.002Z,102258.06
2018-12-29T10:52:05.690Z,102246.77
2018-12-29T10:54:33.824Z,102240.64
2018-12-29T10:57:01.569Z,102239.38
2018-12-29T10:59:29.049Z,102229.98
2018-12-29T11:01:56.944Z,102230.58
2018-12-29T11:04:24.695Z,102221.92
2018-12-29T11:06:52.273Z,102224.39
2018-12-29T11:09:19.966Z,102218.28
2018-12-29T11:11:48.345Z,102214.38
2018-12-29T11:14:16.148Z,102203.02
2018-12-29T11:16:46.501Z,102197.83
2018-12-29T11:19:14.690Z,102189.11
2018-12-29T11:21:41.887Z,102189.16
2018-12-29T11:24:09.855Z,102170.08
2018-12-29T11:26:37.337Z,102175.77
2018-12-29T11:29:05.388Z,102170.34
2018-12-29T11:31:32.878Z,102165.95
2018-12-29T11:34:00.597Z,102155.93
2018-12-29T11:36:28.559Z,102151.66
2018-12-29T11:38:56.140Z,102146.30
2018-12-29T11:41:24.081Z,102135.37
2018-12-29T11:43:51.721Z,102130.95
2018-12-29T11:46:19.582Z,102126.78
2018-12-29T11:48:47.275Z,102115.90
2018-12-29T11:51:15.017Z,102116.25
2018-12-29T11:53:42.533Z,102107.48
2018-12-29T11:56:10.491Z,102107.33
2018-12-29T11:58:38.327Z,102104.63
2018-12-29T12:01:06.040Z,102090.47
2018-12-29T12:03:33.906Z,102085.05
2018-12-29T12:06:01.758Z,102076.90
2018-12-29T12:08:29.409Z,102078.11
2018-12-29T12:10:57.359Z,102083.03
2018-12-29T12:13:24.660Z,102082.30
2018-12-29T12:15:52.165Z,102083.22
2018-12-29T12:18:19.314Z,102086.27
2018-12-29T12:20:47.160Z,102096.38
2018-12-29T12:23:14.749Z,102107.47
2018-12-29T12:25:42.892Z,102113.86
2018-12-29T12:28:11.173Z,102108.71
2018-12-29T12:30:38.837Z,102108.49
2018-12-29T12:33:06.625Z,102100.02
2018-12-29T12:35:33.760Z,102098.70
2018-12-29T12:38:01.710Z,102099.55
2018-12-29T12:40:29.089Z,102089.05
2018-12-29T12:42:56.824Z,102086.94
2018-12-29T12:45:24.531Z,102081.94
2018-12-29T12:47:51.786Z,102085.49
2018-12-29T12:50:19.455Z,102072.26
2018-12-29T12:52:47.172Z,102067.82
2018-12-29T12:55:14.681Z,102065.72
2018-12-29T12:57:42.250Z,102063.20
2018-12-29T13:00:10.150Z,102062.17
2018-12-29T13:02:37.784Z,102046.47
2018-12-29T13:05:05.126Z,102041.67
2018-12-29T13:07:32.821Z,102042.77
2018-12-29T13:10:01.231Z,102046.72
2018-12-29T13:12:28.777Z,102043.47
2018-12-29T13:14:56.231Z,102047.04
2018-12-29T13:17:23.651Z,102048.62
2018-12-29T13:19:51.403Z,102050.37
2018-12-29T13:22:18.884Z,102036.70
2018-12-29T13:24:46.365Z,102036.20
2018-12-29T13:27:14.026Z,102043.44
2018-12-29T13:29:41.390Z,102050.73
2018-12-29T13:32:09.035Z,102061.78
2018-12-29T13:34:36.692Z,102078.68
2018-12-29T13:37:04.455Z,102081.94
2018-12-29T13:39:32.034Z,102079.88
2018-12-29T13:41:59.456Z,102090.52
2018-12-29T13:44:26.896Z,102088.17
2018-12-29T13:46:54.038Z,102087.16
2018-12-29T13:49:21.522Z,102090.40
2018-12-29T13:51:49.013Z,102081.48
2018-12-29T13:54:17.177Z,102077.45
2018-12-29T13:56:44.273Z,102081.83
2018-12-29T13:59:11.692Z,102073.40
2018-12-29T14:01:39.088Z,102065.83
2018-12-29T14:04:06.254Z,102069.70
2018-12-29T14:06:33.728Z,102064.64
2018-12-29T14:09:03.195Z,102076.17
2018-12-29T14:11:31.262Z,102065.69
2018-12-29T14:13:58.390Z,102063.02
2018-12-29T14:16:25.785Z,102042.98
2018-12-29T14:18:54.065Z,102039.11
2018-12-29T14:21:21.333Z,102040.37
2018-12-29T14:23:48.880Z,102048.84
2018-12-29T14:26:16.232Z,102035.26
2018-12-29T14:28:44.131Z,102037.45
2018-12-29T14:31:11.373Z,102035.41
2018-12-29T14:33:39.142Z,102028.91
2018-12-29T14:36:06.273Z,102023.17
2018-12-29T14:38:33.368Z,102018.02
2018-12-29T14:41:00.626Z,102007.11
2018-12-29T14:43:28.742Z,102005.19
2018-12-29T14:45:56.730Z,101994.19
2018-12-29T14:48:24.040Z,101996.55
2018-12-29T14:50:51.693Z,102007.99
2018-12-29T14:53:19.095Z,102018.86
2018-12-29T14:55:46.235Z,102002.80
2018-12-29T14:58:13.912Z,102004.16
2018-12-29T15:00:41.072Z,102005.10
2018-12-29T15:03:08.549Z,101992.78
2018-12-29T15:05:35.770Z,101993.38
2018-12-29T15:08:03.048Z,101984.24
2018-12-29T15:10:30.314Z,101975.69
2018-12-29T15:12:57.980Z,101983.40
2018-12-29T15:15:25.761Z,101989.84
2018-12-29T15:17:53.391Z,101993.89
2018-12-29T15:20:21.531Z,102012.30
2018-12-29T15:22:49.291Z,102027.03
2018-12-29T15:25:16.918Z,102036.38
2018-12-29T15:27:44.628Z,102037.47
2018-12-29T15:30:12.151Z,102047.65
2018-12-29T15:32:39.315Z,102046.23
2018-12-29T15:35:06.963Z,102054.44
2018-12-29T15:37:34.617Z,102042.88
2018-12-29T15:40:02.901Z,102036.53
2018-12-29T15:42:30.017Z,102022.83
2018-12-29T15:44:57.553Z,102019.97
2018-12-29T15:47:24.783Z,102033.41
2018-12-29T15:49:52.791Z,102010.61
2018-12-29T15:52:20.212Z,101998.03
2018-12-29T15:54:48.742Z,101992.00
2018-12-29T15:57:16.366Z,101987.86
2018-12-29T15:59:44.122Z,101967.69
2018-12-29T16:02:12.010Z,101968.19
2018-12-29T16:04:39.662Z,101964.89
2018-12-29T16:07:07.346Z,101956.66
2018-12-29T16:09:35.014Z,101953.01
2018-12-29T16:12:02.581Z,101945.56
2018-12-29T16:14:35.407Z,101940.95
2018-12-29T16:16:59.976Z,101933.67
2018-12-29T16:19:27.146Z,101929.14
2018-12-29T16:21:55.050Z,101913.09
2018-12-29T16:24:23.339Z,101912.30
2018-12-29T16:26:50.893Z,101920.53
2018-12-29T16:29:18.328Z,101907.18
2018-12-29T16:31:45.679Z,101907.50
2018-12-29T16:34:13.396Z,101907.90
2018-12-29T16:36:41.126Z,101906.17
2018-12-29T16:39:08.663Z,101907.52
2018-12-29T16:41:35.922Z,101894.66
2018-12-29T16:44:03.156Z,101908.19
2018-12-29T16:46:31.473Z,101904.53
2018-12-29T16:49:06.560Z,101911.95
2018-12-29T16:51:28.332Z,101892.66
2018-12-29T16:53:55.806Z,101894.81
2018-12-29T16:56:22.961Z,101880.90
2018-12-29T16:58:50.436Z,101865.70
2018-12-29T17:01:17.991Z,101869.53
2018-12-29T17:03:46.130Z,101857.16
2018-12-29T17:06:13.752Z,101861.48
2018-12-29T17:08:41.307Z,101882.48
2018-12-29T17:11:08.952Z,101893.91
2018-12-29T17:13:37.101Z,101877.93
2018-12-29T17:16:04.484Z,101873.58
2018-12-29T17:18:31.911Z,101873.58
2018-12-29T17:21:00.757Z,101880.52
2018-12-29T17:23:28.553Z,101884.34
2018-12-29T17:25:56.101Z,101886.94
2018-12-29T17:28:23.869Z,101881.94
2018-12-29T17:30:51.033Z,101880.20
2018-12-29T17:33:18.548Z,101883.64
2018-12-29T17:35:49.270Z,101882.45
2018-12-29T17:38:17.570Z,101918.50
2018-12-29T17:40:45.178Z,101944.41
2018-12-29T17:43:13.141Z,101935.19
2018-12-29T17:45:40.615Z,101917.16
2018-12-29T17:48:10.493Z,101903.80
2018-12-29T17:50:38.182Z,101908.81
2018-12-29T17:53:05.870Z,101874.34
2018-12-29T17:55:33.111Z,101868.98
2018-12-29T17:58:00.686Z,101865.61
2018-12-29T18:00:30.131Z,101848.16
2018-12-29T18:02:58.273Z,101845.95
2018-12-29T18:05:26.146Z,101837.18
2018-12-29T18:07:54.477Z,101833.11
2018-12-29T18:10:23.323Z,101827.98
2018-12-29T18:12:51.142Z,101822.58
2018-12-29T18:15:19.022Z,101818.36
2018-12-29T18:17:46.862Z,101825.80
2018-12-29T18:20:14.401Z,101815.55
2018-12-29T18:22:41.539Z,101804.33
2018-12-29T18:25:09.430Z,101797.25
2018-12-29T18:27:36.964Z,101800.97
2018-12-29T18:30:04.731Z,101796.58
2018-12-29T18:32:32.518Z,101793.53
2018-12-29T18:34:59.981Z,101783.39
2018-12-29T18:37:28.084Z,101777.78
2018-12-29T18:39:55.990Z,101775.08
2018-12-29T18:42:23.233Z,101764.66
2018-12-29T18:44:52.204Z,101758.56
2018-12-29T18:47:19.433Z,101764.14
2018-12-29T18:49:48.086Z,101762.33
2018-12-29T18:52:15.998Z,101764.02
2018-12-29T18:54:43.286Z,101745.56
2018-12-29T18:57:11.053Z,101739.86
2018-12-29T18:59:39.190Z,101754.34
2018-12-29T19:02:06.903Z,101737.16
2018-12-29T19:04:35.234Z,101743.92
2018-12-29T19:07:02.467Z,101738.67
2018-12-29T19:09:29.963Z,101748.56
2018-12-29T19:11:57.827Z,101761.03
2018-12-29T19:14:25.402Z,101761.03
2018-12-29T19:16:53.516Z,101749.29
2018-12-29T19:19:21.086Z,101755.16
2018-12-29T19:21:48.241Z,101750.34
2018-12-29T19:24:16.014Z,101741.44
2018-12-29T19:26:43.672Z,101746.75
2018-12-29T19:29:11.467Z,101747.77
2018-12-29T19:31:44.506Z,101751.78
2018-12-29T19:34:08.884Z,101735.56
2018-12-29T19:36:36.517Z,101743.58
2018-12-29T19:39:06.303Z,101718.36
2018-12-29T19:41:33.574Z,101713.80
2018-12-29T19:44:01.005Z,101701.43
2018-12-29T19:46:28.561Z,101694.23
2018-12-29T19:48:55.657Z,101702.65
2018-12-29T19:51:23.368Z,101684.73
2018-12-29T19:53:50.639Z,101683.72
2018-12-29T19:56:18.255Z,101684.73
2018-12-29T19:58:45.649Z,101689.03
2018-12-29T20:01:13.127Z,101694.23
2018-12-29T20:03:40.752Z,101686.12
2018-12-29T20:06:11.246Z,101679.09
2018-12-29T20:08:38.043Z,101680.58
2018-12-29T20:11:05.175Z,101679.23
2018-12-29T20:13:32.326Z,101663.34
2018-12-29T20:16:00.160Z,101670.27
2018-12-29T20:18:27.578Z,101672.66
2018-12-29T20:20:55.403Z,101673.17
2018-12-29T20:23:23.254Z,101666.27
2018-12-29T20:25:50.843Z,101670.83
2018-12-29T20:28:18.776Z,101668.97
2018-12-29T20:30:46.272Z,101655.66
2018-12-29T20:33:13.412Z,101644.33
2018-12-29T20:35:41.101Z,101643.80
2018-12-29T20:38:09.358Z,101642.31
2018-12-29T20:40:37.352Z,101643.81
2018-12-29T20:43:05.312Z,101654.84
2018-12-29T20:45:32.871Z,101646.70
2018-12-29T20:48:00.009Z,101650.75
2018-12-29T20:50:27.302Z,101645.02
2018-12-29T20:52:54.878Z,101636.55
2018-12-29T20:55:22.088Z,101625.39
2018-12-29T20:57:50.365Z,101625.41
2018-12-29T21:00:17.610Z,101620.17
2018-12-29T21:02:44.888Z,101623.04
2018-12-29T21:05:13.140Z,101614.75
2018-12-29T21:07:41.036Z,101609.34
2018-12-29T21:10:08.736Z,101614.77
2018-12-29T21:12:36.406Z,101605.47
2018-12-29T21:15:04.753Z,101617.48
2018-12-29T21:17:32.228Z,101616.47
2018-12-29T21:20:03.630Z,101613.24
2018-12-29T21:22:31.764Z,101606.30
2018-12-29T21:25:00.016Z,101604.95
2018-12-29T21:27:28.070Z,101600.20
2018-12-29T21:29:56.293Z,101594.30
2018-12-29T21:32:24.029Z,101592.59
2018-12-29T21:34:51.223Z,101583.28
2018-12-29T21:37:18.930Z,101584.98
2018-12-29T21:39:46.253Z,101587.05
2018-12-29T21:42:13.709Z,101581.28
2018-12-29T21:44:41.776Z,101585.34
2018-12-29T21:47:10.285Z,101597.86
2018-12-29T21:49:38.690Z,101575.03
2018-12-29T21:52:06.292Z,101580.97
2018-12-29T21:54:33.930Z,101552.88
2018-12-29T21:57:01.706Z,101564.71
2018-12-29T21:59:29.489Z,101561.32
2018-12-29T22:01:57.630Z,101571.81
2018-12-29T22:04:25.281Z,101588.06
2018-12-29T22:06:53.024Z,101580.77
2018-12-29T22:09:21.089Z,101568.42
2018-12-29T22:11:48.224Z,101562.34
2018-12-29T22:14:15.363Z,101561.51
2018-12-29T22:16:43.072Z,101557.96
2018-12-29T22:19:11.372Z,101560.83
2018-12-29T22:21:39.127Z,101564.70
2018-12-29T22:24:09.774Z,101569.12
2018-12-29T22:26:36.977Z,101565.39
2018-12-29T22:29:05.316Z,101563.36
2018-12-29T22:31:32.852Z,101570.29
2018-12-29T22:34:00.389Z,101544.26
2018-12-29T22:36:28.025Z,101551.69
2018-12-29T22:38:55.481Z,101553.55
2018-12-29T22:41:22.961Z,101551.00
2018-12-29T22:43:50.711Z,101547.64
2018-12-29T22:46:18.728Z,101556.09
2018-12-29T22:48:46.568Z,101544.57
2018-12-29T22:51:14.177Z,101550.14
2018-12-29T22:53:42.237Z,101543.05
2018-12-29T22:56:09.339Z,101556.92
2018-12-29T22:58:37.033Z,101567.25
2018-12-29T23:01:04.523Z,101556.07
2018-12-29T23:03:33.035Z,101547.09
2018-12-29T23:06:00.664Z,101551.34
2018-12-29T23:08:28.039Z,101544.39
2018-12-29T23:10:56.139Z,101545.42
2018-12-29T23:13:23.711Z,101536.28
2018-12-29T23:15:51.517Z,101535.08
2018-12-29T23:18:18.768Z,101530.51
2018-12-29T23:20:49.088Z,101527.11
2018-12-29T23:23:16.705Z,101526.27
2018-12-29T23:25:44.142Z,101519.67
2018-12-29T23:28:11.708Z,101517.95
2018-12-29T23:30:39.879Z,101523.20
2018-12-29T23:33:07.790Z,101524.34
2018-12-29T23:35:35.280Z,101523.17
2018-12-29T23:38:02.811Z,101529.44
2018-12-29T23:40:30.735Z,101524.86
2018-12-29T23:42:58.084Z,101518.30
2018-12-29T23:45:25.792Z,101512.21
2018-12-29T23:47:53.332Z,101500.33
2018-12-29T23:50:21.013Z,101508.78
2018-12-29T23:52:48.774Z,101507.06
2018-12-29T23:55:16.865Z,101485.09
2018-12-29T23:57:44.632Z,101486.23
